Time;durP1;ratioP1;P1;durP2;ratioP2;P2;SDS_P1;SDS_P2;PMS_P1;PMS_P2;Temp;Humidity;BMP_temperature;BMP_pressure;BME280_temperature;BME280_humidity;BME280_pressure;Samples;Min_cycle;Max_cycle;Signal;HPM_P1;HPM_P2
2024/01/23 00:01:57;;;;;;;14.85;4.50;;;;;;;7.33;88.55;101593.94;5010959;28;20034;-66
2024/01/23 00:04:22;;;;;;;12.07;4.03;;;;;;;7.27;88.10;101588.91;5008912;28;20053;-66
2024/01/23 00:06:47;;;;;;;20.13;4.30;;;;;;;7.25;88.57;101590.72;5010518;28;20057;-66
2024/01/23 00:09:13;;;;;;;19.75;4.55;;;;;;;7.25;88.86;101630.41;5009466;28;20393;-66
2024/01/23 00:11:38;;;;;;;14.80;4.78;;;;;;;7.24;88.72;101639.28;5010479;28;20030;-66
2024/01/23 00:14:04;;;;;;;14.32;4.30;;;;;;;7.24;88.82;101626.03;5010529;28;20018;-66
2024/01/23 00:16:29;;;;;;;9.38;4.00;;;;;;;7.18;88.49;101627.13;5008857;28;20620;-67
2024/01/23 00:18:54;;;;;;;17.40;4.60;;;;;;;7.66;86.28;101643.88;5009108;28;20033;-66
2024/01/23 00:21:20;;;;;;;18.13;5.60;;;;;;;7.39;87.45;101656.38;5008736;28;20022;-66
2024/01/23 00:23:45;;;;;;;14.63;4.10;;;;;;;7.35;88.28;101655.59;5009102;28;20044;-66
2024/01/23 00:26:10;;;;;;;12.57;4.30;;;;;;;7.36;87.56;101652.06;5008102;28;20022;-66
2024/01/23 00:28:36;;;;;;;12.00;4.47;;;;;;;7.40;87.39;101655.44;5009855;28;20025;-66
2024/01/23 00:31:01;;;;;;;12.88;3.72;;;;;;;7.30;88.48;101657.56;5009467;28;20481;-66
2024/01/23 00:33:27;;;;;;;14.90;3.85;;;;;;;7.36;88.18;101670.56;5009028;28;20168;-66
2024/01/23 00:35:52;;;;;;;12.88;4.07;;;;;;;7.30;88.85;101660.22;5009799;28;20083;-66
2024/01/23 00:38:20;;;;;;;19.33;4.43;;;;;;;7.18;89.20;101669.47;5010136;28;20036;-66
2024/01/23 00:40:45;;;;;;;18.77;5.05;;;;;;;7.31;89.00;101674.31;5009432;28;20088;-66
2024/01/23 00:43:12;;;;;;;15.43;5.20;;;;;;;7.30;89.13;101675.22;5007317;28;20466;-65
2024/01/23 00:45:38;;;;;;;24.20;4.70;;;;;;;7.29;88.85;101684.94;5008993;28;20029;-66
2024/01/23 00:48:04;;;;;;;8.57;3.47;;;;;;;7.24;88.75;101682.47;5010561;28;20034;-66
2024/01/23 00:50:29;;;;;;;19.17;4.63;;;;;;;7.24;89.50;101702.78;5008643;28;20393;-67
2024/01/23 00:52:57;;;;;;;19.52;4.70;;;;;;;7.19;89.49;101689.69;5010733;28;20106;-66
2024/01/23 00:55:22;;;;;;;18.35;4.35;;;;;;;7.30;88.54;101684.03;5010372;28;20026;-66
2024/01/23 00:57:48;;;;;;;14.93;4.20;;;;;;;7.35;88.58;101705.88;5009694;28;20112;-66
2024/01/23 01:00:16;;;;;;;18.05;4.43;;;;;;;7.27;88.58;101703.53;5008751;28;20026;-66
2024/01/23 01:02:41;;;;;;;17.45;4.90;;;;;;;7.23;88.60;101703.66;5010025;28;20026;-66
2024/01/23 01:05:09;;;;;;;19.02;4.63;;;;;;;7.05;89.11;101702.53;5010251;28;20113;-66
2024/01/23 01:07:34;;;;;;;18.33;4.97;;;;;;;7.00;89.06;101686.84;5008901;28;20060;-66
2024/01/23 01:10:00;;;;;;;19.65;4.72;;;;;;;7.15;88.73;101716.31;5008815;28;20449;-66
2024/01/23 01:12:25;;;;;;;20.42;4.50;;;;;;;7.05;88.49;101713.13;5008899;28;20504;-66
2024/01/23 01:14:51;;;;;;;15.70;6.22;;;;;;;7.05;88.13;101728.97;5011913;28;20032;-66
2024/01/23 01:17:16;;;;;;;14.18;3.83;;;;;;;7.01;88.35;101725.59;5013493;28;20470;-66
2024/01/23 01:19:41;;;;;;;18.20;3.78;;;;;;;6.98;88.67;101733.63;5012208;28;20036;-67
2024/01/23 01:22:07;;;;;;;17.20;4.13;;;;;;;6.91;89.14;101755.91;5012479;28;20087;-66
2024/01/23 01:24:32;;;;;;;23.65;6.82;;;;;;;6.80;89.70;101753.63;5013018;28;20033;-66
2024/01/23 01:26:58;;;;;;;17.50;4.55;;;;;;;6.80;89.40;101766.84;5013826;28;20033;-66
2024/01/23 01:29:25;;;;;;;15.50;4.25;;;;;;;6.76;89.53;101762.53;5011739;28;20460;-66
2024/01/23 01:31:51;;;;;;;18.75;3.95;;;;;;;6.80;89.69;101777.41;5012096;28;20029;-66
2024/01/23 01:34:17;;;;;;;12.98;3.83;;;;;;;6.71;89.81;101774.22;5012546;28;20109;-66
2024/01/23 01:36:42;;;;;;;9.02;3.22;;;;;;;6.75;89.94;101770.53;5013499;28;20065;-66
2024/01/23 01:39:07;;;;;;;16.90;4.95;;;;;;;6.70;89.51;101773.31;5013829;28;20030;-66
2024/01/23 01:41:33;;;;;;;21.20;4.13;;;;;;;6.73;88.80;101775.88;5012894;28;20033;-66
2024/01/23 01:43:58;;;;;;;14.75;4.35;;;;;;;6.67;90.21;101793.72;5012042;28;20378;-66
2024/01/23 01:46:25;;;;;;;19.63;4.18;;;;;;;6.65;90.05;101777.03;5011291;28;20139;-66
2024/01/23 01:48:52;;;;;;;19.92;5.30;;;;;;;6.64;90.20;101784.09;5013117;28;20477;-66
2024/01/23 01:51:21;;;;;;;21.73;4.85;;;;;;;6.55;90.15;101771.16;5013062;28;20025;-66
2024/01/23 01:53:50;;;;;;;22.45;4.82;;;;;;;6.69;89.88;101784.81;4999103;28;20394;-66
2024/01/23 01:56:18;;;;;;;14.77;5.05;;;;;;;6.72;89.40;101782.06;5009401;28;20030;-66
2024/01/23 01:58:45;;;;;;;13.55;4.85;;;;;;;6.68;90.06;101795.47;5012173;28;20068;-66
2024/01/23 02:01:11;;;;;;;15.40;4.82;;;;;;;6.69;89.80;101813.03;5012860;28;20393;-66
2024/01/23 02:03:37;;;;;;;14.40;5.35;;;;;;;6.64;90.25;101828.16;5013909;28;20021;-66
2024/01/23 02:06:06;;;;;;;14.95;3.90;;;;;;;6.63;90.48;101840.53;5011775;28;20040;-66
2024/01/23 02:08:34;;;;;;;9.57;4.03;;;;;;;6.61;90.67;101826.47;5012002;28;20037;-66
2024/01/23 02:11:01;;;;;;;17.55;4.07;;;;;;;6.49;90.86;101824.22;5011023;28;20497;-66
2024/01/23 02:13:27;;;;;;;20.92;5.32;;;;;;;6.53;91.10;101844.34;5011294;28;20425;-66
2024/01/23 02:15:53;;;;;;;18.15;4.35;;;;;;;6.58;90.83;101851.22;5011005;28;20060;-66
2024/01/23 02:18:18;;;;;;;17.77;3.75;;;;;;;6.62;90.32;101859.06;5012367;28;20480;-66
2024/01/23 02:20:43;;;;;;;25.08;4.57;;;;;;;6.55;91.12;101842.53;5012180;28;20456;-66
2024/01/23 02:23:13;;;;;;;14.50;4.43;;;;;;;6.52;91.24;101848.75;5011271;28;20370;-66
2024/01/23 02:25:39;;;;;;;14.93;3.97;;;;;;;6.52;90.69;101851.41;5009767;28;20030;-66
2024/01/23 02:28:05;;;;;;;11.48;4.00;;;;;;;6.48;91.11;101856.84;5012856;28;20441;-66
2024/01/23 02:30:31;;;;;;;18.60;5.03;;;;;;;6.53;91.10;101865.47;5010105;28;20080;-66
2024/01/23 02:32:56;;;;;;;18.05;3.97;;;;;;;6.46;91.16;101867.44;5012229;28;20385;-66
2024/01/23 02:35:22;;;;;;;23.60;5.95;;;;;;;6.35;91.76;101856.31;5012269;28;20022;-66
2024/01/23 02:37:47;;;;;;;8.93;3.80;;;;;;;6.33;91.82;101876.66;5011244;28;20021;-66
2024/01/23 02:40:13;;;;;;;11.48;3.92;;;;;;;6.11;91.77;101835.00;5012026;28;20030;-66
2024/01/23 02:42:38;;;;;;;16.33;4.55;;;;;;;6.36;92.00;101876.56;5006236;28;20385;-66
2024/01/23 02:45:04;;;;;;;19.33;4.13;;;;;;;6.31;92.28;101889.03;5011268;28;20022;-66
2024/01/23 02:47:29;;;;;;;12.77;4.57;;;;;;;6.44;91.71;101901.00;5010772;28;20057;-66
2024/01/23 02:49:54;;;;;;;14.93;4.97;;;;;;;6.40;92.48;101911.69;5011595;28;20108;-66
2024/01/23 02:52:20;;;;;;;15.02;4.10;;;;;;;6.33;92.92;101908.38;5004948;28;20232;-66
2024/01/23 02:54:45;;;;;;;16.25;5.07;;;;;;;6.33;93.11;101919.78;5011581;28;20013;-66
2024/01/23 02:57:13;;;;;;;14.88;4.70;;;;;;;6.29;93.40;101910.19;5011716;28;20176;-66
2024/01/23 02:59:39;;;;;;;15.43;4.03;;;;;;;6.31;93.04;101916.31;5012139;28;20477;-66
2024/01/23 03:02:07;;;;;;;15.77;4.93;;;;;;;6.28;93.71;101931.41;5012369;28;20033;-66
2024/01/23 03:04:33;;;;;;;29.15;5.40;;;;;;;6.26;93.54;101938.50;5010472;28;20026;-66
2024/01/23 03:06:59;;;;;;;14.90;4.35;;;;;;;6.20;93.46;101928.09;5007920;28;20103;-66
2024/01/23 03:09:24;;;;;;;15.65;3.97;;;;;;;6.29;93.64;101943.69;5001813;28;20091;-66
2024/01/23 03:11:53;;;;;;;14.85;4.82;;;;;;;6.21;93.27;101933.34;5010271;28;20101;-66
2024/01/23 03:14:19;;;;;;;18.92;4.45;;;;;;;6.27;93.61;101930.53;5009137;28;20073;-66
2024/01/23 03:16:44;;;;;;;15.73;4.35;;;;;;;6.33;93.35;101940.06;5007253;28;20027;-66
2024/01/23 03:19:12;;;;;;;23.15;5.63;;;;;;;6.29;93.48;101955.13;5009274;28;20046;-66
2024/01/23 03:21:38;;;;;;;20.42;5.28;;;;;;;6.24;93.44;101949.13;5003009;28;20034;-66
2024/01/23 03:24:03;;;;;;;12.35;4.40;;;;;;;6.32;93.37;101965.63;4993549;28;20345;-66
2024/01/23 03:26:31;;;;;;;25.13;5.38;;;;;;;6.27;94.07;101983.38;5002265;28;20023;-66
2024/01/23 03:28:57;;;;;;;22.60;4.63;;;;;;;6.23;93.90;101967.63;4997334;28;20096;-66
2024/01/23 03:31:22;;;;;;;16.75;5.55;;;;;;;6.30;93.65;101995.63;5009622;28;20544;-66
2024/01/23 03:33:48;;;;;;;17.40;4.28;;;;;;;6.27;94.08;101988.66;5011107;28;20025;-66
2024/01/23 03:36:13;;;;;;;18.27;5.85;;;;;;;6.24;93.81;101991.38;5011180;28;20025;-66
2024/01/23 03:38:39;;;;;;;21.75;5.03;;;;;;;6.20;94.10;101979.13;5011288;28;20477;-66
2024/01/23 03:41:04;;;;;;;18.77;4.85;;;;;;;6.16;94.17;101979.28;5010855;28;20100;-66
2024/01/23 03:43:32;;;;;;;16.88;4.38;;;;;;;6.17;94.09;101979.22;5010902;28;20029;-66
2024/01/23 03:45:58;;;;;;;17.73;4.97;;;;;;;5.77;94.16;101924.78;5011316;28;20030;-67
2024/01/23 03:48:23;;;;;;;19.10;4.63;;;;;;;6.11;94.07;101987.31;5009978;28;20159;-66
2024/01/23 03:50:48;;;;;;;19.52;4.80;;;;;;;6.18;93.87;101996.81;5009311;28;20036;-66
2024/01/23 03:53:14;;;;;;;19.98;4.75;;;;;;;5.96;94.78;101991.22;5011196;28;20030;-66
2024/01/23 03:55:39;;;;;;;14.88;4.55;;;;;;;6.09;94.85;102015.56;5010885;28;20053;-66
2024/01/23 03:58:04;;;;;;;14.25;4.22;;;;;;;6.00;94.28;102013.13;5009761;28;20025;-66
2024/01/23 04:00:30;;;;;;;21.75;5.20;;;;;;;5.98;95.08;102031.66;5010539;28;20037;-66
2024/01/23 04:02:55;;;;;;;20.45;4.60;;;;;;;5.91;95.04;102023.00;5009883;28;20432;-66
2024/01/23 04:05:21;;;;;;;15.38;4.75;;;;;;;5.94;94.75;102026.47;5010740;28;20060;-66
2024/01/23 04:07:47;;;;;;;16.08;4.30;;;;;;;5.91;95.13;102035.31;5010250;28;20024;-66
2024/01/23 04:10:13;;;;;;;23.08;4.60;;;;;;;5.86;94.83;102029.28;5010796;28;20038;-66
2024/01/23 04:12:40;;;;;;;20.63;4.60;;;;;;;5.91;94.87;102040.59;5008211;28;20021;-66
2024/01/23 04:15:06;;;;;;;19.60;4.57;;;;;;;5.86;94.68;102040.72;5010677;28;20067;-66
2024/01/23 04:17:31;;;;;;;16.23;4.88;;;;;;;5.81;95.19;102031.16;5006220;28;20045;-66
2024/01/23 04:19:57;;;;;;;18.48;4.75;;;;;;;5.85;94.84;102046.03;5010306;28;20107;-66
2024/01/23 04:22:22;;;;;;;21.80;4.82;;;;;;;5.78;95.62;102041.81;5008637;28;20022;-66
2024/01/23 04:24:50;;;;;;;15.85;4.38;;;;;;;5.82;95.30;102052.25;5008909;28;20026;-66
2024/01/23 04:27:15;;;;;;;16.58;4.65;;;;;;;5.83;94.98;102058.41;5009368;28;20109;-66
2024/01/23 04:29:43;;;;;;;23.38;6.30;;;;;;;5.69;95.04;102037.59;5009848;28;20037;-66
2024/01/23 04:32:08;;;;;;;18.00;4.88;;;;;;;5.76;95.33;102051.53;5010199;28;20223;-66
2024/01/23 04:34:34;;;;;;;21.77;4.50;;;;;;;5.74;95.28;102070.06;5009800;28;20080;-66
2024/01/23 04:36:59;;;;;;;12.00;4.57;;;;;;;5.73;95.08;102073.56;5008398;28;20046;-66
2024/01/23 04:39:24;;;;;;;25.73;4.70;;;;;;;5.69;95.39;102090.41;5009988;28;20517;-66
2024/01/23 04:41:50;;;;;;;23.65;5.32;;;;;;;5.73;94.83;102097.34;5008319;28;20392;-66
2024/01/23 04:44:15;;;;;;;21.80;5.25;;;;;;;5.63;94.72;102095.81;5008643;28;20022;-66
2024/01/23 04:46:41;;;;;;;16.98;4.47;;;;;;;5.68;95.17;102117.72;5008548;28;20088;-68
2024/01/23 04:49:08;;;;;;;24.20;5.60;;;;;;;5.59;94.73;102110.84;5012314;28;20034;-66
2024/01/23 04:51:34;;;;;;;19.15;4.50;;;;;;;5.64;94.88;102129.22;5016630;28;20049;-66
2024/01/23 04:53:59;;;;;;;21.77;5.25;;;;;;;5.61;95.29;102129.28;5016899;28;20057;-66
2024/01/23 04:56:24;;;;;;;15.73;4.40;;;;;;;5.60;95.49;102135.47;5014797;28;20080;-66
2024/01/23 04:58:50;;;;;;;14.30;4.47;;;;;;;5.57;95.78;102130.25;5016668;28;20044;-66
2024/01/23 05:01:17;;;;;;;20.13;4.55;;;;;;;5.55;95.68;102132.06;5012989;28;20375;-66
2024/01/23 05:03:46;;;;;;;16.30;5.68;;;;;;;5.53;96.23;102134.75;5005935;28;20057;-66
2024/01/23 05:06:11;;;;;;;14.23;4.65;;;;;;;5.53;96.02;102141.75;5014553;28;20038;-66
2024/01/23 05:08:39;;;;;;;14.45;5.07;;;;;;;5.51;95.84;102146.22;5015856;28;20060;-66
2024/01/23 05:11:04;;;;;;;16.35;4.45;;;;;;;5.45;96.49;102155.13;5007675;28;20026;-66
2024/01/23 05:13:30;;;;;;;21.33;5.15;;;;;;;5.44;96.32;102167.47;5016225;28;20076;-66
2024/01/23 05:15:57;;;;;;;17.52;4.25;;;;;;;5.51;95.79;102180.53;5016262;28;20022;-66
2024/01/23 05:18:23;;;;;;;22.90;4.88;;;;;;;5.46;95.70;102185.88;5016001;28;20045;-66
2024/01/23 05:20:48;;;;;;;20.10;4.97;;;;;;;5.44;95.63;102179.75;5016155;28;20033;-66
2024/01/23 05:23:14;;;;;;;20.58;5.47;;;;;;;5.42;95.91;102182.44;5016395;28;20109;-66
2024/01/23 05:25:41;;;;;;;28.27;5.75;;;;;;;5.41;96.43;102191.28;5015925;28;20440;-66
2024/01/23 05:28:06;;;;;;;18.98;4.65;;;;;;;5.39;95.60;102186.94;5016398;28;20061;-66
2024/01/23 05:30:34;;;;;;;15.68;4.07;;;;;;;5.42;95.91;102195.63;5014532;28;20536;-66
2024/01/23 05:32:59;;;;;;;20.48;5.07;;;;;;;5.35;96.26;102198.41;5014767;28;20021;-66
2024/01/23 05:35:26;;;;;;;25.70;5.68;;;;;;;5.40;96.56;102204.47;5013144;28;20100;-66
2024/01/23 05:37:51;;;;;;;25.00;4.78;;;;;;;5.28;96.49;102188.91;5012839;28;20033;-66
2024/01/23 05:40:17;;;;;;;18.67;5.03;;;;;;;5.31;96.97;102204.66;5004750;28;20452;-66
2024/01/23 05:42:42;;;;;;;18.52;4.70;;;;;;;5.29;96.61;102206.44;4999220;28;20034;-67
2024/01/23 05:45:09;;;;;;;17.30;4.28;;;;;;;5.30;96.81;102221.41;5009951;28;20511;-66
2024/01/23 05:47:34;;;;;;;20.40;5.05;;;;;;;5.36;95.92;102229.19;4996267;28;20113;-66
2024/01/23 05:50:00;;;;;;;13.80;4.43;;;;;;;5.31;96.76;102231.91;5011076;28;20112;-66
2024/01/23 05:52:26;;;;;;;18.05;4.93;;;;;;;5.30;97.06;102238.09;5007658;28;20170;-66
2024/01/23 05:54:51;;;;;;;22.30;5.90;;;;;;;5.35;97.15;102249.41;5009874;28;20017;-66
2024/01/23 05:57:19;;;;;;;22.70;4.88;;;;;;;5.35;97.20;102245.91;5013917;28;20036;-66
2024/01/23 05:59:45;;;;;;;18.25;4.80;;;;;;;5.29;97.20;102253.94;5015670;28;20056;-66
2024/01/23 06:02:10;;;;;;;28.30;6.68;;;;;;;5.28;96.87;102260.13;5011635;28;20030;-66
2024/01/23 06:04:36;;;;;;;16.42;5.18;;;;;;;5.31;97.35;102268.84;5013120;28;20041;-66
2024/01/23 06:07:02;;;;;;;25.55;4.43;;;;;;;5.37;96.30;102257.31;5011800;28;20034;-66
2024/01/23 06:09:29;;;;;;;14.00;4.82;;;;;;;5.29;97.87;102260.06;5011507;28;20033;-67
2024/01/23 06:11:55;;;;;;;22.50;6.28;;;;;;;5.21;97.87;102252.31;5008575;28;20128;-66
2024/01/23 06:14:21;;;;;;;21.08;5.07;;;;;;;5.29;97.64;102270.63;5012757;28;20469;-66
2024/01/23 06:16:48;;;;;;;21.70;4.63;;;;;;;5.31;97.56;102260.91;5010993;28;20041;-66
2024/01/23 06:19:14;;;;;;;14.00;4.22;;;;;;;5.33;97.21;102264.41;5013200;28;20046;-66
2024/01/23 06:21:39;;;;;;;16.88;4.38;;;;;;;5.29;97.55;102267.97;5011204;28;20104;-66
2024/01/23 06:24:05;;;;;;;19.45;4.93;;;;;;;5.27;97.92;102274.22;5012311;28;20069;-66
2024/01/23 06:26:32;;;;;;;16.77;4.53;;;;;;;5.30;97.13;102261.84;5011751;28;20056;-66
2024/01/23 06:28:58;;;;;;;21.70;4.55;;;;;;;5.34;97.17;102279.34;5011914;28;20034;-66
2024/01/23 06:31:26;;;;;;;15.45;4.40;;;;;;;5.12;97.41;102251.63;5011770;28;20046;-66
2024/01/23 06:33:54;;;;;;;18.02;4.75;;;;;;;5.26;97.51;102277.72;5010850;28;20033;-68
2024/01/23 06:36:20;;;;;;;17.88;5.15;;;;;;;5.16;97.64;102271.75;5012200;28;20037;-66
2024/01/23 06:38:45;;;;;;;21.42;4.78;;;;;;;5.23;97.65;102295.38;5011947;28;20034;-66
2024/01/23 06:41:11;;;;;;;21.92;5.28;;;;;;;5.15;98.10;102292.00;5011903;28;20057;-66
2024/01/23 06:43:38;;;;;;;21.20;5.60;;;;;;;5.16;97.91;102290.22;5011603;28;20024;-66
2024/01/23 06:46:04;;;;;;;15.20;4.28;;;;;;;5.28;97.14;102312.88;5012251;28;20038;-66
2024/01/23 06:48:32;;;;;;;22.60;5.50;;;;;;;5.11;97.36;102290.28;5010763;28;20025;-66
2024/01/23 06:50:57;;;;;;;31.65;6.47;;;;;;;5.17;98.18;102311.28;5010947;28;20117;-66
2024/01/23 06:53:23;;;;;;;19.83;5.13;;;;;;;5.13;98.49;102314.88;5011854;28;20512;-66
2024/01/23 06:55:48;;;;;;;17.20;4.32;;;;;;;5.27;96.96;102316.41;5011717;28;20026;-66
2024/01/23 06:58:14;;;;;;;22.70;4.65;;;;;;;5.12;97.59;102320.19;5010596;28;20423;-66
2024/01/23 07:00:39;;;;;;;21.33;4.70;;;;;;;5.12;98.31;102321.06;5010593;28;20494;-66
2024/01/23 07:03:06;;;;;;;15.18;4.70;;;;;;;5.20;97.27;102318.25;5012260;28;20033;-66
2024/01/23 07:05:31;;;;;;;19.52;5.03;;;;;;;5.09;97.88;102321.09;5011729;28;20022;-66
2024/01/23 07:07:56;;;;;;;16.63;4.57;;;;;;;5.10;97.65;102316.69;5011266;28;20040;-66
2024/01/23 07:10:22;;;;;;;16.55;5.22;;;;;;;5.07;98.10;102316.75;5010485;28;20370;-66
2024/01/23 07:12:47;;;;;;;21.23;4.78;;;;;;;5.05;97.86;102305.34;5009273;28;20397;-66
2024/01/23 07:15:15;;;;;;;22.50;5.78;;;;;;;5.13;97.44;102321.91;5010302;28;20488;-66
2024/01/23 07:17:41;;;;;;;20.58;5.15;;;;;;;5.11;96.89;102313.16;5011200;28;20441;-67
2024/01/23 07:20:10;;;;;;;21.10;4.75;;;;;;;5.03;97.41;102308.03;5011437;28;20017;-66
2024/01/23 07:22:35;;;;;;;13.90;5.20;;;;;;;4.95;97.75;102312.53;5009694;28;20028;-66
2024/01/23 07:25:01;;;;;;;25.02;4.70;;;;;;;5.12;97.40;102321.06;5003830;28;20113;-65
2024/01/23 07:27:27;;;;;;;21.75;4.75;;;;;;;5.08;97.01;102344.84;5002778;28;20106;-65
2024/01/23 07:29:52;;;;;;;23.05;4.68;;;;;;;5.03;97.25;102338.75;5004902;28;20045;-65
2024/01/23 07:32:17;;;;;;;23.42;5.45;;;;;;;5.15;97.09;102359.69;5009502;28;20080;-65
2024/01/23 07:34:43;;;;;;;22.80;6.13;;;;;;;5.06;96.97;102357.16;5011156;28;20100;-65
2024/01/23 07:37:08;;;;;;;15.82;4.68;;;;;;;5.01;97.17;102358.13;5010115;28;20351;-65
2024/01/23 07:39:36;;;;;;;15.70;5.70;;;;;;;4.99;97.41;102369.59;5010728;28;20105;-65
2024/01/23 07:42:02;;;;;;;21.30;5.20;;;;;;;4.96;97.69;102375.78;5009161;28;20079;-65
2024/01/23 07:44:28;;;;;;;20.67;5.47;;;;;;;4.93;97.55;102374.97;5011024;28;20381;-65
2024/01/23 07:46:54;;;;;;;11.50;5.30;;;;;;;4.92;97.29;102360.91;5006245;28;20059;-65
2024/01/23 07:49:19;;;;;;;16.75;5.30;;;;;;;4.89;97.98;102360.97;5007149;28;20026;-65
2024/01/23 07:51:46;;;;;;;18.50;5.20;;;;;;;4.77;97.88;102364.66;4993362;28;20436;-65
2024/01/23 07:54:12;;;;;;;10.05;3.58;;;;;;;4.90;97.30;102373.22;4995646;28;20038;-65
2024/01/23 07:56:37;;;;;;;21.85;5.32;;;;;;;4.79;98.08;102375.16;5008027;28;20436;-65
2024/01/23 07:59:02;;;;;;;21.15;5.07;;;;;;;4.74;99.05;102372.59;5005805;28;20026;-65
2024/01/23 08:01:32;;;;;;;18.17;5.10;;;;;;;4.74;98.65;102384.91;5008636;28;20029;-65
2024/01/23 08:04:00;;;;;;;21.25;5.18;;;;;;;4.69;98.84;102390.22;5009024;28;20108;-65
2024/01/23 08:06:26;;;;;;;19.38;7.07;;;;;;;4.68;99.20;102396.41;5008446;28;20029;-65
2024/01/23 08:08:51;;;;;;;18.85;5.22;;;;;;;4.36;99.26;102346.78;4997876;28;20398;-65
2024/01/23 08:11:17;;;;;;;23.50;5.35;;;;;;;4.66;100.00;102399.94;5009693;28;20411;-65
2024/01/23 08:13:43;;;;;;;22.73;5.20;;;;;;;4.61;100.00;102402.63;5010200;28;20028;-65
2024/01/23 08:16:09;;;;;;;26.95;5.95;;;;;;;4.58;100.00;102410.56;5010044;28;20025;-65
2024/01/23 08:18:38;;;;;;;17.05;4.70;;;;;;;4.64;99.48;102414.91;5009022;28;20036;-64
2024/01/23 08:21:04;;;;;;;16.02;5.32;;;;;;;4.63;100.00;102421.94;5004791;28;20439;-65
2024/01/23 08:23:29;;;;;;;14.65;4.47;;;;;;;4.47;100.00;102399.28;5010423;28;20026;-65
2024/01/23 08:25:55;;;;;;;20.00;4.85;;;;;;;4.62;100.00;102422.84;5009798;28;20088;-65
2024/01/23 08:28:22;;;;;;;21.83;5.68;;;;;;;4.61;100.00;102430.75;5010920;28;20106;-65
2024/01/23 08:30:48;;;;;;;19.60;5.57;;;;;;;4.70;100.00;102436.75;5008627;28;20409;-65
2024/01/23 08:33:17;;;;;;;17.13;4.88;;;;;;;4.63;100.00;102440.38;5011016;28;20076;-65
2024/01/23 08:35:46;;;;;;;17.80;5.88;;;;;;;4.69;100.00;102444.72;5010556;28;20104;-65
2024/01/23 08:38:14;;;;;;;17.77;6.22;;;;;;;4.66;100.00;102442.09;5011119;28;20437;-65
2024/01/23 08:40:41;;;;;;;17.45;5.75;;;;;;;4.85;99.86;102453.28;5009138;28;20026;-66
2024/01/23 08:43:07;;;;;;;14.80;5.25;;;;;;;4.86;100.00;102469.09;5010600;28;20018;-65
2024/01/23 08:45:32;;;;;;;18.98;5.45;;;;;;;4.79;100.00;102470.03;5003395;28;20149;-65
2024/01/23 08:47:58;;;;;;;15.05;5.40;;;;;;;4.83;100.00;102470.91;5010085;28;20026;-65
2024/01/23 08:50:25;;;;;;;19.70;6.50;;;;;;;4.94;100.00;102476.88;5010450;28;20022;-65
2024/01/23 08:52:51;;;;;;;16.13;4.63;;;;;;;4.97;99.35;102468.91;5008315;28;20061;-65
2024/01/23 08:55:19;;;;;;;16.25;6.25;;;;;;;4.94;99.72;102468.97;5009689;28;20452;-65
2024/01/23 08:57:44;;;;;;;16.55;5.15;;;;;;;4.96;100.00;102470.69;5006995;28;20477;-65
2024/01/23 09:00:13;;;;;;;15.93;5.25;;;;;;;4.86;99.87;102439.22;5007772;28;20084;-65
2024/01/23 09:02:39;;;;;;;18.85;5.10;;;;;;;5.02;99.73;102461.81;5007722;28;20421;-65
2024/01/23 09:05:05;;;;;;;11.48;4.65;;;;;;;5.19;99.29;102480.91;5008391;28;20030;-66
2024/01/23 09:07:30;;;;;;;20.27;5.78;;;;;;;5.18;99.25;102473.06;5007935;28;20028;-65
2024/01/23 09:09:56;;;;;;;4.75;3.47;;;;;;;5.24;99.27;102471.19;5009226;28;20058;-65
2024/01/23 09:12:22;;;;;;;13.98;4.25;;;;;;;5.29;99.04;102460.53;5008903;28;20398;-65
2024/01/23 09:14:47;;;;;;;24.25;6.65;;;;;;;5.28;99.41;102473.78;5009342;28;20276;-65
2024/01/23 09:17:13;;;;;;;16.77;5.30;;;;;;;5.32;99.20;102480.75;5009469;28;20038;-65
2024/01/23 09:19:38;;;;;;;18.48;4.85;;;;;;;5.31;99.55;102479.88;5009617;28;20029;-65
2024/01/23 09:22:04;;;;;;;19.75;5.10;;;;;;;5.27;99.67;102472.91;5009013;28;20041;-65
2024/01/23 09:24:30;;;;;;;20.73;5.70;;;;;;;5.41;98.77;102463.03;5009738;28;20030;-65
2024/01/23 09:27:00;;;;;;;21.55;5.32;;;;;;;5.38;99.04;102454.25;5009268;28;20057;-65
2024/01/23 09:29:28;;;;;;;22.50;5.65;;;;;;;5.62;97.67;102475.00;5009320;28;20560;-65
2024/01/23 09:31:53;;;;;;;22.85;6.35;;;;;;;5.51;98.16;102455.81;5008099;28;20034;-65
2024/01/23 09:34:19;;;;;;;16.45;5.85;;;;;;;5.64;97.90;102467.03;5009691;28;20101;-65
2024/01/23 09:36:45;;;;;;;19.73;5.32;;;;;;;5.72;97.29;102467.78;5007457;28;20030;-64
2024/01/23 09:39:13;;;;;;;17.73;5.85;;;;;;;5.79;96.61;102461.50;5007749;28;20036;-65
2024/01/23 09:41:45;;;;;;;23.70;5.45;;;;;;;5.91;96.44;102469.25;5012948;28;20079;-64
2024/01/23 09:44:11;;;;;;;21.13;6.07;;;;;;;5.93;96.83;102458.66;4995024;28;20080;-65
2024/01/23 09:46:37;;;;;;;16.85;5.28;;;;;;;6.14;94.60;102473.25;4993117;28;20019;-64
2024/01/23 09:49:03;;;;;;;9.25;4.35;;;;;;;6.33;94.00;102481.72;4998230;28;20034;-65
2024/01/23 09:51:28;;;;;;;25.70;6.63;;;;;;;6.24;93.78;102472.19;5010100;28;20536;-65
2024/01/23 09:53:54;;;;;;;19.30;4.97;;;;;;;6.24;93.72;102466.91;5005259;28;20038;-65
2024/01/23 09:56:22;;;;;;;23.58;5.07;;;;;;;6.30;94.22;102477.34;5010542;28;20417;-65
2024/01/23 09:58:49;;;;;;;21.55;6.00;;;;;;;6.42;93.98;102468.31;5010521;28;20022;-64
2024/01/23 10:01:18;;;;;;;25.20;6.35;;;;;;;6.55;93.13;102475.09;5011600;28;20025;-66
2024/01/23 10:03:49;;;;;;;17.80;4.75;;;;;;;6.59;93.08;102482.09;5010422;28;20485;-65
2024/01/23 10:06:17;;;;;;;18.52;5.53;;;;;;;6.67;92.32;102484.53;5002870;28;20065;-65
2024/01/23 10:08:42;;;;;;;20.80;5.22;;;;;;;6.85;92.62;102488.59;5011204;28;20053;-65
2024/01/23 10:11:10;;;;;;;19.73;6.07;;;;;;;7.02;90.63;102477.66;5012339;28;20481;-64
2024/01/23 10:13:37;;;;;;;19.70;4.68;;;;;;;7.21;88.79;102500.16;5011120;28;20026;-65
2024/01/23 10:16:03;;;;;;;22.75;5.60;;;;;;;7.15;89.83;102492.38;5012615;28;20451;-64
2024/01/23 10:18:29;;;;;;;16.27;4.65;;;;;;;7.38;89.06;102491.84;5012574;28;20393;-63
2024/01/23 10:20:54;;;;;;;26.67;5.22;;;;;;;7.39;87.46;102501.50;5012731;28;20033;-64
2024/01/23 10:23:20;;;;;;;24.15;4.97;;;;;;;7.47;87.26;102496.91;5012328;28;20123;-65
2024/01/23 10:25:45;;;;;;;17.13;6.28;;;;;;;7.57;87.76;102494.91;5011688;28;20356;-66
2024/01/23 10:28:12;;;;;;;24.38;6.75;;;;;;;7.72;86.69;102485.72;5011573;28;20030;-66
2024/01/23 10:30:41;;;;;;;20.85;5.13;;;;;;;7.88;86.04;102486.19;5011818;28;20050;-65
2024/01/23 10:33:07;;;;;;;21.98;4.90;;;;;;;8.14;84.84;102481.09;4993985;28;20026;-65
2024/01/23 10:35:35;;;;;;;15.13;4.63;;;;;;;8.30;85.85;102489.53;4997256;28;20037;-65
2024/01/23 10:38:05;;;;;;;20.10;5.03;;;;;;;8.10;83.80;102487.41;5015328;28;20505;-65
2024/01/23 10:40:31;;;;;;;;;;;;;;;8.09;86.21;102492.72;5009917;28;20038;-65
2024/01/23 10:42:57;;;;;;;20.80;5.03;;;;;;;8.15;82.81;102487.28;5012279;28;19913;-65
2024/01/23 10:45:25;;;;;;;18.92;5.45;;;;;;;8.24;84.04;102488.81;5011955;28;20033;-65
2024/01/23 10:47:52;;;;;;;17.92;5.70;;;;;;;8.44;82.17;102488.28;5008800;28;20108;-65
2024/01/23 10:50:20;;;;;;;23.80;4.75;;;;;;;8.50;81.34;102494.31;5011366;28;20049;-66
2024/01/23 10:52:48;;;;;;;23.40;5.30;;;;;;;8.54;82.30;102488.00;5010518;28;20025;-65
2024/01/23 10:55:16;;;;;;;14.18;5.13;;;;;;;8.71;81.67;102484.88;5008981;28;20033;-63
2024/01/23 10:57:48;;;;;;;19.23;5.45;;;;;;;8.71;82.07;102479.56;5011803;28;20032;-64
2024/01/23 11:00:20;;;;;;;24.50;5.90;;;;;;;8.70;80.20;102469.84;5012223;28;20033;-64
2024/01/23 11:02:59;;;;;;;23.02;5.00;;;;;;;9.05;81.14;102483.88;5010233;28;20030;-64
2024/01/23 11:05:35;;;;;;;22.83;6.15;;;;;;;9.14;78.89;102480.06;5011766;28;20052;-65
2024/01/23 11:08:14;;;;;;;15.85;5.70;;;;;;;9.00;80.40;102478.72;5011437;28;20665;-64
2024/01/23 11:10:52;;;;;;;14.75;4.45;;;;;;;8.93;79.67;102477.16;5010738;28;20180;-64
2024/01/23 11:13:38;;;;;;;25.90;4.93;;;;;;;8.48;81.07;102464.31;5009431;28;20104;-64
2024/01/23 11:16:06;;;;;;;16.60;4.78;;;;;;;8.23;81.64;102445.53;4993825;28;20037;-65
2024/01/23 11:18:33;;;;;;;22.85;5.30;;;;;;;8.10;82.36;102433.53;4998584;28;20026;-65
2024/01/23 11:21:10;;;;;;;19.35;5.38;;;;;;;8.17;81.76;102443.91;5001451;28;20029;-65